sensor_id;sensor_type;location;lat;lon;timestamp;temperature;humidity
52899;DHT22;38763;53.096;6.062;2022-09-12T00:01:19;14.30;99.90
52899;DHT22;38763;53.096;6.062;2022-09-12T00:03:46;14.20;99.90
52899;DHT22;38763;53.096;6.062;2022-09-12T00:06:16;14.20;99.90
52899;DHT22;38763;53.096;6.062;2022-09-12T00:08:42;14.30;99.90
52899;DHT22;38763;53.096;6.062;2022-09-12T00:11:09;14.30;99.90
52899;DHT22;38763;53.096;6.062;2022-09-12T00:13:36;14.30;99.90
52899;DHT22;38763;53.096;6.062;2022-09-12T00:16:02;14.30;99.90
52899;DHT22;38763;53.096;6.062;2022-09-12T00:18:29;14.30;99.90
52899;DHT22;38763;53.096;6.062;2022-09-12T00:20:55;14.30;99.90
52899;DHT22;38763;53.096;6.062;2022-09-12T00:23:20;14.30;99.90
52899;DHT22;38763;53.096;6.062;2022-09-12T00:25:47;14.20;99.90
52899;DHT22;38763;53.096;6.062;2022-09-12T00:28:14;14.20;99.90
52899;DHT22;38763;53.096;6.062;2022-09-12T00:30:46;14.20;99.90
52899;DHT22;38763;53.096;6.062;2022-09-12T00:33:13;14.10;99.90
52899;DHT22;38763;53.096;6.062;2022-09-12T00:35:50;14.20;99.90
52899;DHT22;38763;53.096;6.062;2022-09-12T00:38:19;14.20;99.90
52899;DHT22;38763;53.096;6.062;2022-09-12T00:40:46;14.20;99.90
52899;DHT22;38763;53.096;6.062;2022-09-12T00:45:54;14.10;99.90
52899;DHT22;38763;53.096;6.062;2022-09-12T00:48:25;14.00;99.90
52899;DHT22;38763;53.096;6.062;2022-09-12T00:50:54;14.00;99.90
52899;DHT22;38763;53.096;6.062;2022-09-12T00:53:20;14.00;99.90
52899;DHT22;38763;53.096;6.062;2022-09-12T00:55:48;14.00;99.90
52899;DHT22;38763;53.096;6.062;2022-09-12T00:58:21;14.00;99.90
52899;DHT22;38763;53.096;6.062;2022-09-12T01:00:47;14.00;99.90
52899;DHT22;38763;53.096;6.062;2022-09-12T01:03:16;14.00;99.90
52899;DHT22;38763;53.096;6.062;2022-09-12T01:05:46;14.00;99.90
52899;DHT22;38763;53.096;6.062;2022-09-12T01:08:16;13.90;99.90
52899;DHT22;38763;53.096;6.062;2022-09-12T01:10:42;14.10;99.90
52899;DHT22;38763;53.096;6.062;2022-09-12T01:13:09;14.00;99.90
52899;DHT22;38763;53.096;6.062;2022-09-12T01:15:38;13.80;99.90
52899;DHT22;38763;53.096;6.062;2022-09-12T01:18:31;13.80;99.90
52899;DHT22;38763;53.096;6.062;2022-09-12T01:37:20;13.90;99.90
52899;DHT22;38763;53.096;6.062;2022-09-12T01:39:53;13.80;99.90
52899;DHT22;38763;53.096;6.062;2022-09-12T01:47:31;13.70;99.90
52899;DHT22;38763;53.096;6.062;2022-09-12T01:50:05;13.60;99.90
52899;DHT22;38763;53.096;6.062;2022-09-12T01:52:49;13.70;99.90
52899;DHT22;38763;53.096;6.062;2022-09-12T02:00:27;13.60;99.90
52899;DHT22;38763;53.096;6.062;2022-09-12T02:05:32;13.60;99.90
52899;DHT22;38763;53.096;6.062;2022-09-12T02:08:20;13.50;99.90
52899;DHT22;38763;53.096;6.062;2022-09-12T02:11:00;13.60;99.90
52899;DHT22;38763;53.096;6.062;2022-09-12T02:13:41;13.60;99.90
52899;DHT22;38763;53.096;6.062;2022-09-12T02:18:45;13.50;99.90
52899;DHT22;38763;53.096;6.062;2022-09-12T02:21:12;13.40;99.90
52899;DHT22;38763;53.096;6.062;2022-09-12T02:23:43;13.50;99.90
52899;DHT22;38763;53.096;6.062;2022-09-12T02:26:18;13.50;99.90
52899;DHT22;38763;53.096;6.062;2022-09-12T02:28:44;13.40;99.90
52899;DHT22;38763;53.096;6.062;2022-09-12T02:31:23;13.50;99.90
52899;DHT22;38763;53.096;6.062;2022-09-12T02:34:16;13.50;99.90
52899;DHT22;38763;53.096;6.062;2022-09-12T02:39:39;13.50;99.90
52899;DHT22;38763;53.096;6.062;2022-09-12T02:42:05;13.40;99.90
52899;DHT22;38763;53.096;6.062;2022-09-12T02:44:32;13.40;99.90
52899;DHT22;38763;53.096;6.062;2022-09-12T02:47:16;13.40;99.90
52899;DHT22;38763;53.096;6.062;2022-09-12T02:49:42;13.40;99.90
52899;DHT22;38763;53.096;6.062;2022-09-12T02:52:08;13.30;99.90
52899;DHT22;38763;53.096;6.062;2022-09-12T02:54:35;13.40;99.90
52899;DHT22;38763;53.096;6.062;2022-09-12T02:57:02;13.40;99.90
52899;DHT22;38763;53.096;6.062;2022-09-12T02:59:28;13.40;99.90
52899;DHT22;38763;53.096;6.062;2022-09-12T03:02:05;13.40;99.90
52899;DHT22;38763;53.096;6.062;2022-09-12T03:09:46;13.40;99.90
52899;DHT22;38763;53.096;6.062;2022-09-12T03:15:21;13.30;99.90
52899;DHT22;38763;53.096;6.062;2022-09-12T03:22:57;13.20;99.90
52899;DHT22;38763;53.096;6.062;2022-09-12T03:25:33;13.20;99.90
52899;DHT22;38763;53.096;6.062;2022-09-12T03:28:06;13.20;99.90
52899;DHT22;38763;53.096;6.062;2022-09-12T03:30:45;13.20;99.90
52899;DHT22;38763;53.096;6.062;2022-09-12T03:33:17;13.20;99.90
52899;DHT22;38763;53.096;6.062;2022-09-12T03:35:44;13.20;99.90
52899;DHT22;38763;53.096;6.062;2022-09-12T03:38:10;13.20;99.90
52899;DHT22;38763;53.096;6.062;2022-09-12T03:40:36;13.10;99.90
52899;DHT22;38763;53.096;6.062;2022-09-12T03:43:03;13.20;99.90
52899;DHT22;38763;53.096;6.062;2022-09-12T03:45:29;13.10;99.90
52899;DHT22;38763;53.096;6.062;2022-09-12T03:47:55;13.10;99.90
52899;DHT22;38763;53.096;6.062;2022-09-12T03:50:21;13.10;99.90
52899;DHT22;38763;53.096;6.062;2022-09-12T03:52:47;13.10;99.90
52899;DHT22;38763;53.096;6.062;2022-09-12T03:55:12;13.10;99.90
52899;DHT22;38763;53.096;6.062;2022-09-12T03:57:38;13.10;99.90
52899;DHT22;38763;53.096;6.062;2022-09-12T04:00:05;13.00;99.90
52899;DHT22;38763;53.096;6.062;2022-09-12T04:02:33;13.00;99.90
52899;DHT22;38763;53.096;6.062;2022-09-12T04:04:59;13.10;99.90
52899;DHT22;38763;53.096;6.062;2022-09-12T04:07:24;13.10;99.90
52899;DHT22;38763;53.096;6.062;2022-09-12T04:09:50;13.10;99.90
52899;DHT22;38763;53.096;6.062;2022-09-12T04:12:16;13.10;99.90
52899;DHT22;38763;53.096;6.062;2022-09-12T04:14:42;13.20;99.90
52899;DHT22;38763;53.096;6.062;2022-09-12T04:17:07;13.30;99.90
52899;DHT22;38763;53.096;6.062;2022-09-12T04:19:33;13.40;99.90
52899;DHT22;38763;53.096;6.062;2022-09-12T04:21:59;13.40;99.90
52899;DHT22;38763;53.096;6.062;2022-09-12T04:24:24;13.50;99.90
52899;DHT22;38763;53.096;6.062;2022-09-12T04:26:50;13.50;99.90
52899;DHT22;38763;53.096;6.062;2022-09-12T04:29:16;13.50;99.90
52899;DHT22;38763;53.096;6.062;2022-09-12T04:31:42;13.50;99.90
52899;DHT22;38763;53.096;6.062;2022-09-12T04:34:08;13.50;99.90
52899;DHT22;38763;53.096;6.062;2022-09-12T04:36:33;13.60;99.90
52899;DHT22;38763;53.096;6.062;2022-09-12T04:39:01;13.70;99.90
52899;DHT22;38763;53.096;6.062;2022-09-12T04:41:29;13.60;99.90
52899;DHT22;38763;53.096;6.062;2022-09-12T04:43:57;13.60;99.90
52899;DHT22;38763;53.096;6.062;2022-09-12T04:46:24;13.70;99.90
52899;DHT22;38763;53.096;6.062;2022-09-12T04:48:53;13.70;99.90
52899;DHT22;38763;53.096;6.062;2022-09-12T04:51:24;13.80;99.90
52899;DHT22;38763;53.096;6.062;2022-09-12T04:53:54;13.70;99.90
52899;DHT22;38763;53.096;6.062;2022-09-12T04:56:20;13.80;99.90
52899;DHT22;38763;53.096;6.062;2022-09-12T04:58:46;13.80;99.90
52899;DHT22;38763;53.096;6.062;2022-09-12T05:01:15;13.80;99.90
52899;DHT22;38763;53.096;6.062;2022-09-12T05:03:43;13.90;99.90
52899;DHT22;38763;53.096;6.062;2022-09-12T05:06:19;13.90;99.90
52899;DHT22;38763;53.096;6.062;2022-09-12T05:08:45;13.90;99.90
52899;DHT22;38763;53.096;6.062;2022-09-12T05:11:13;13.90;99.90
52899;DHT22;38763;53.096;6.062;2022-09-12T05:13:39;14.00;99.90
52899;DHT22;38763;53.096;6.062;2022-09-12T05:16:05;14.10;99.90
52899;DHT22;38763;53.096;6.062;2022-09-12T05:18:33;14.10;99.90
52899;DHT22;38763;53.096;6.062;2022-09-12T05:21:00;14.00;99.90
52899;DHT22;38763;53.096;6.062;2022-09-12T05:23:27;14.10;99.90
52899;DHT22;38763;53.096;6.062;2022-09-12T05:25:55;14.10;99.90
52899;DHT22;38763;53.096;6.062;2022-09-12T05:28:23;14.10;99.90
52899;DHT22;38763;53.096;6.062;2022-09-12T05:31:20;14.20;99.90
52899;DHT22;38763;53.096;6.062;2022-09-12T05:33:46;14.10;99.90
52899;DHT22;38763;53.096;6.062;2022-09-12T05:36:21;14.30;99.90
52899;DHT22;38763;53.096;6.062;2022-09-12T05:38:48;14.20;99.90
52899;DHT22;38763;53.096;6.062;2022-09-12T05:41:16;14.20;99.90
52899;DHT22;38763;53.096;6.062;2022-09-12T05:43:43;14.30;99.90
52899;DHT22;38763;53.096;6.062;2022-09-12T05:46:14;14.30;99.90
52899;DHT22;38763;53.096;6.062;2022-09-12T05:48:41;14.20;99.90
52899;DHT22;38763;53.096;6.062;2022-09-12T05:51:19;14.30;99.90
52899;DHT22;38763;53.096;6.062;2022-09-12T05:53:47;14.30;99.90
52899;DHT22;38763;53.096;6.062;2022-09-12T05:56:16;14.30;99.90
52899;DHT22;38763;53.096;6.062;2022-09-12T05:58:44;14.40;99.90
52899;DHT22;38763;53.096;6.062;2022-09-12T06:01:13;14.40;99.90
52899;DHT22;38763;53.096;6.062;2022-09-12T06:03:50;14.40;99.90
52899;DHT22;38763;53.096;6.062;2022-09-12T06:06:20;14.50;99.90
52899;DHT22;38763;53.096;6.062;2022-09-12T06:08:49;14.40;99.90
52899;DHT22;38763;53.096;6.062;2022-09-12T06:11:18;14.50;99.90
52899;DHT22;38763;53.096;6.062;2022-09-12T06:13:45;14.60;99.90
52899;DHT22;38763;53.096;6.062;2022-09-12T06:16:20;14.60;99.90
52899;DHT22;38763;53.096;6.062;2022-09-12T06:18:47;14.60;99.90
52899;DHT22;38763;53.096;6.062;2022-09-12T06:21:13;14.60;99.90
52899;DHT22;38763;53.096;6.062;2022-09-12T06:23:39;14.60;99.90
52899;DHT22;38763;53.096;6.062;2022-09-12T06:26:09;14.60;99.90
52899;DHT22;38763;53.096;6.062;2022-09-12T06:28:37;14.70;99.90
52899;DHT22;38763;53.096;6.062;2022-09-12T06:31:08;14.70;99.90
52899;DHT22;38763;53.096;6.062;2022-09-12T06:33:36;14.70;99.90
52899;DHT22;38763;53.096;6.062;2022-09-12T06:36:23;14.70;99.90
52899;DHT22;38763;53.096;6.062;2022-09-12T06:38:57;14.70;99.90
52899;DHT22;38763;53.096;6.062;2022-09-12T06:41:24;14.70;99.90
52899;DHT22;38763;53.096;6.062;2022-09-12T06:43:50;14.80;99.90
52899;DHT22;38763;53.096;6.062;2022-09-12T06:46:16;14.80;99.90
52899;DHT22;38763;53.096;6.062;2022-09-12T06:48:41;14.90;99.90
52899;DHT22;38763;53.096;6.062;2022-09-12T06:51:13;14.90;99.90
52899;DHT22;38763;53.096;6.062;2022-09-12T06:53:39;15.00;99.90
52899;DHT22;38763;53.096;6.062;2022-09-12T06:58:38;15.10;99.90
52899;DHT22;38763;53.096;6.062;2022-09-12T07:01:05;15.10;99.90
52899;DHT22;38763;53.096;6.062;2022-09-12T07:03:33;15.10;99.90
52899;DHT22;38763;53.096;6.062;2022-09-12T07:06:09;15.10;99.90
52899;DHT22;38763;53.096;6.062;2022-09-12T07:08:35;15.10;99.90
52899;DHT22;38763;53.096;6.062;2022-09-12T07:11:19;15.30;99.90
52899;DHT22;38763;53.096;6.062;2022-09-12T07:13:47;15.20;99.90
52899;DHT22;38763;53.096;6.062;2022-09-12T07:16:13;15.30;99.90
52899;DHT22;38763;53.096;6.062;2022-09-12T07:18:39;15.20;99.90
52899;DHT22;38763;53.096;6.062;2022-09-12T07:21:07;15.20;99.90
52899;DHT22;38763;53.096;6.062;2022-09-12T07:23:33;15.30;99.90
52899;DHT22;38763;53.096;6.062;2022-09-12T07:25:59;15.30;99.90
52899;DHT22;38763;53.096;6.062;2022-09-12T07:28:27;15.50;99.90
52899;DHT22;38763;53.096;6.062;2022-09-12T07:30:53;15.50;99.90
52899;DHT22;38763;53.096;6.062;2022-09-12T07:33:23;15.60;99.90
52899;DHT22;38763;53.096;6.062;2022-09-12T07:35:50;15.70;99.90
52899;DHT22;38763;53.096;6.062;2022-09-12T07:38:19;15.70;99.90
52899;DHT22;38763;53.096;6.062;2022-09-12T07:40:44;15.70;99.90
52899;DHT22;38763;53.096;6.062;2022-09-12T07:43:10;15.80;99.90
52899;DHT22;38763;53.096;6.062;2022-09-12T07:45:36;15.80;99.90
52899;DHT22;38763;53.096;6.062;2022-09-12T07:48:02;15.80;99.90
52899;DHT22;38763;53.096;6.062;2022-09-12T07:50:28;15.80;99.90
52899;DHT22;38763;53.096;6.062;2022-09-12T07:52:53;15.90;99.90
52899;DHT22;38763;53.096;6.062;2022-09-12T07:55:20;15.90;99.90
52899;DHT22;38763;53.096;6.062;2022-09-12T07:57:49;15.90;99.90
52899;DHT22;38763;53.096;6.062;2022-09-12T08:00:15;16.00;99.90
52899;DHT22;38763;53.096;6.062;2022-09-12T08:02:41;16.10;99.90
52899;DHT22;38763;53.096;6.062;2022-09-12T08:05:07;16.10;99.90
52899;DHT22;38763;53.096;6.062;2022-09-12T08:07:33;16.20;99.90
52899;DHT22;38763;53.096;6.062;2022-09-12T08:09:59;16.30;99.90
52899;DHT22;38763;53.096;6.062;2022-09-12T08:12:26;16.40;99.90
52899;DHT22;38763;53.096;6.062;2022-09-12T08:14:52;16.60;99.90
52899;DHT22;38763;53.096;6.062;2022-09-12T08:17:18;16.60;99.90
52899;DHT22;38763;53.096;6.062;2022-09-12T08:19:43;16.80;99.90
52899;DHT22;38763;53.096;6.062;2022-09-12T08:22:10;17.00;99.90
52899;DHT22;38763;53.096;6.062;2022-09-12T08:24:36;17.20;99.90
52899;DHT22;38763;53.096;6.062;2022-09-12T08:27:02;17.20;99.90
52899;DHT22;38763;53.096;6.062;2022-09-12T08:29:27;17.40;99.90
52899;DHT22;38763;53.096;6.062;2022-09-12T08:31:53;17.50;99.90
52899;DHT22;38763;53.096;6.062;2022-09-12T08:34:18;17.60;99.90
52899;DHT22;38763;53.096;6.062;2022-09-12T08:36:45;17.60;99.90
52899;DHT22;38763;53.096;6.062;2022-09-12T08:39:11;17.60;99.90
52899;DHT22;38763;53.096;6.062;2022-09-12T08:44:36;17.80;99.90
52899;DHT22;38763;53.096;6.062;2022-09-12T08:52:31;18.10;99.90
52899;DHT22;38763;53.096;6.062;2022-09-12T08:54:59;18.10;99.90
52899;DHT22;38763;53.096;6.062;2022-09-12T08:57:26;18.20;99.90
52899;DHT22;38763;53.096;6.062;2022-09-12T08:59:52;18.20;99.90
52899;DHT22;38763;53.096;6.062;2022-09-12T09:04:51;18.40;99.90
52899;DHT22;38763;53.096;6.062;2022-09-12T09:15:42;18.80;99.90
52899;DHT22;38763;53.096;6.062;2022-09-12T09:18:21;18.90;99.90
52899;DHT22;38763;53.096;6.062;2022-09-12T09:20:49;19.00;99.90
52899;DHT22;38763;53.096;6.062;2022-09-12T09:28:17;19.10;99.90
52899;DHT22;38763;53.096;6.062;2022-09-12T09:30:44;19.10;99.90
52899;DHT22;38763;53.096;6.062;2022-09-12T09:33:20;19.20;99.90
52899;DHT22;38763;53.096;6.062;2022-09-12T09:35:54;19.30;99.90
52899;DHT22;38763;53.096;6.062;2022-09-12T09:38:27;19.30;99.90
52899;DHT22;38763;53.096;6.062;2022-09-12T09:43:50;19.30;99.90
52899;DHT22;38763;53.096;6.062;2022-09-12T09:46:16;19.30;99.90
52899;DHT22;38763;53.096;6.062;2022-09-12T09:48:48;19.40;99.90
52899;DHT22;38763;53.096;6.062;2022-09-12T09:51:18;19.50;99.90
52899;DHT22;38763;53.096;6.062;2022-09-12T09:53:59;19.60;99.90
52899;DHT22;38763;53.096;6.062;2022-09-12T09:58:51;19.70;99.90
52899;DHT22;38763;53.096;6.062;2022-09-12T10:01:17;19.90;99.90
52899;DHT22;38763;53.096;6.062;2022-09-12T10:03:49;19.90;99.90
52899;DHT22;38763;53.096;6.062;2022-09-12T10:08:45;20.20;99.90
52899;DHT22;38763;53.096;6.062;2022-09-12T10:16:31;20.30;99.90
52899;DHT22;38763;53.096;6.062;2022-09-12T10:18:59;20.20;99.90
52899;DHT22;38763;53.096;6.062;2022-09-12T10:21:38;20.30;99.90
52899;DHT22;38763;53.096;6.062;2022-09-12T10:24:22;20.30;99.90
52899;DHT22;38763;53.096;6.062;2022-09-12T10:26:54;20.40;99.90
52899;DHT22;38763;53.096;6.062;2022-09-12T10:29:25;20.50;99.90
52899;DHT22;38763;53.096;6.062;2022-09-12T10:31:58;20.60;99.90
52899;DHT22;38763;53.096;6.062;2022-09-12T10:34:25;20.60;99.90
52899;DHT22;38763;53.096;6.062;2022-09-12T10:37:00;20.60;99.90
52899;DHT22;38763;53.096;6.062;2022-09-12T10:39:27;20.70;99.90
52899;DHT22;38763;53.096;6.062;2022-09-12T10:41:53;20.70;99.90
52899;DHT22;38763;53.096;6.062;2022-09-12T10:44:25;20.70;99.90
52899;DHT22;38763;53.096;6.062;2022-09-12T10:46:51;20.80;99.90
52899;DHT22;38763;53.096;6.062;2022-09-12T10:49:21;20.90;99.90
52899;DHT22;38763;53.096;6.062;2022-09-12T10:51:48;20.90;99.90
52899;DHT22;38763;53.096;6.062;2022-09-12T10:54:17;20.90;99.90
52899;DHT22;38763;53.096;6.062;2022-09-12T11:00:03;21.00;99.90
52899;DHT22;38763;53.096;6.062;2022-09-12T11:05:12;21.10;99.90
52899;DHT22;38763;53.096;6.062;2022-09-12T11:07:45;21.10;99.90
52899;DHT22;38763;53.096;6.062;2022-09-12T11:35:11;21.50;99.90
52899;DHT22;38763;53.096;6.062;2022-09-12T11:42:52;21.90;99.90
52899;DHT22;38763;53.096;6.062;2022-09-12T11:45:28;22.10;99.90
52899;DHT22;38763;53.096;6.062;2022-09-12T11:48:00;22.10;99.90
52899;DHT22;38763;53.096;6.062;2022-09-12T11:50:30;22.30;99.90
52899;DHT22;38763;53.096;6.062;2022-09-12T11:53:22;22.30;99.90
52899;DHT22;38763;53.096;6.062;2022-09-12T11:55:54;22.30;99.90
52899;DHT22;38763;53.096;6.062;2022-09-12T11:58:24;22.30;99.90
52899;DHT22;38763;53.096;6.062;2022-09-12T12:00:54;22.30;99.90
52899;DHT22;38763;53.096;6.062;2022-09-12T12:06:03;22.40;99.90
52899;DHT22;38763;53.096;6.062;2022-09-12T12:08:33;22.30;99.90
52899;DHT22;38763;53.096;6.062;2022-09-12T12:11:04;22.40;99.90
52899;DHT22;38763;53.096;6.062;2022-09-12T12:13:37;22.40;99.90
52899;DHT22;38763;53.096;6.062;2022-09-12T12:16:19;22.50;99.90
52899;DHT22;38763;53.096;6.062;2022-09-12T12:18:53;22.50;99.90
52899;DHT22;38763;53.096;6.062;2022-09-12T12:27:23;22.40;99.90
52899;DHT22;38763;53.096;6.062;2022-09-12T12:29:37;22.40;99.90
52899;DHT22;38763;53.096;6.062;2022-09-12T12:58:04;22.70;99.90
52899;DHT22;38763;53.096;6.062;2022-09-12T13:00:37;22.70;99.90
52899;DHT22;38763;53.096;6.062;2022-09-12T13:05:46;22.60;99.90
52899;DHT22;38763;53.096;6.062;2022-09-12T13:10:49;22.50;99.90
52899;DHT22;38763;53.096;6.062;2022-09-12T13:13:40;22.40;99.90
52899;DHT22;38763;53.096;6.062;2022-09-12T13:16:36;22.40;99.90
52899;DHT22;38763;53.096;6.062;2022-09-12T13:19:13;22.50;99.90
52899;DHT22;38763;53.096;6.062;2022-09-12T13:22:14;22.70;99.90
52899;DHT22;38763;53.096;6.062;2022-09-12T13:24:47;22.70;99.90
52899;DHT22;38763;53.096;6.062;2022-09-12T13:27:22;22.70;99.90
52899;DHT22;38763;53.096;6.062;2022-09-12T13:29:48;22.70;99.90
52899;DHT22;38763;53.096;6.062;2022-09-12T13:32:15;22.60;99.90
52899;DHT22;38763;53.096;6.062;2022-09-12T13:34:58;22.70;99.90
52899;DHT22;38763;53.096;6.062;2022-09-12T13:42:48;22.70;99.90
52899;DHT22;38763;53.096;6.062;2022-09-12T13:45:26;22.60;99.90
52899;DHT22;38763;53.096;6.062;2022-09-12T13:47:55;22.70;99.90
52899;DHT22;38763;53.096;6.062;2022-09-12T13:50:25;22.70;99.90
52899;DHT22;38763;53.096;6.062;2022-09-12T13:52:54;22.80;99.90
52899;DHT22;38763;53.096;6.062;2022-09-12T13:55:28;22.80;99.90
52899;DHT22;38763;53.096;6.062;2022-09-12T13:58:01;22.90;99.90
52899;DHT22;38763;53.096;6.062;2022-09-12T14:00:28;23.00;99.90
52899;DHT22;38763;53.096;6.062;2022-09-12T14:02:56;23.00;99.90
52899;DHT22;38763;53.096;6.062;2022-09-12T14:06:01;23.10;99.90
52899;DHT22;38763;53.096;6.062;2022-09-12T14:08:27;23.10;99.90
52899;DHT22;38763;53.096;6.062;2022-09-12T14:10:53;23.10;99.90
52899;DHT22;38763;53.096;6.062;2022-09-12T14:13:24;23.10;99.90
52899;DHT22;38763;53.096;6.062;2022-09-12T14:15:52;23.10;99.90
52899;DHT22;38763;53.096;6.062;2022-09-12T14:18:25;23.10;99.90
52899;DHT22;38763;53.096;6.062;2022-09-12T14:20:52;23.00;99.90
52899;DHT22;38763;53.096;6.062;2022-09-12T14:23:26;23.00;99.90
52899;DHT22;38763;53.096;6.062;2022-09-12T14:25:52;23.00;99.90
52899;DHT22;38763;53.096;6.062;2022-09-12T14:28:20;23.00;99.90
52899;DHT22;38763;53.096;6.062;2022-09-12T14:31:50;23.00;99.90
52899;DHT22;38763;53.096;6.062;2022-09-12T14:34:12;23.00;99.90
52899;DHT22;38763;53.096;6.062;2022-09-12T14:36:46;23.10;99.90
52899;DHT22;38763;53.096;6.062;2022-09-12T14:39:41;23.10;99.90
52899;DHT22;38763;53.096;6.062;2022-09-12T14:42:20;23.10;99.90
52899;DHT22;38763;53.096;6.062;2022-09-12T14:45:00;23.10;99.90
52899;DHT22;38763;53.096;6.062;2022-09-12T14:47:32;23.00;99.90
52899;DHT22;38763;53.096;6.062;2022-09-12T14:49:59;23.10;99.90
52899;DHT22;38763;53.096;6.062;2022-09-12T14:52:31;23.00;99.90
52899;DHT22;38763;53.096;6.062;2022-09-12T14:55:26;23.00;99.90
52899;DHT22;38763;53.096;6.062;2022-09-12T14:58:07;22.90;99.90
52899;DHT22;38763;53.096;6.062;2022-09-12T15:00:36;22.90;99.90
52899;DHT22;38763;53.096;6.062;2022-09-12T15:03:23;23.00;99.90
52899;DHT22;38763;53.096;6.062;2022-09-12T15:05:49;23.10;99.90
52899;DHT22;38763;53.096;6.062;2022-09-12T15:08:15;23.10;99.90
52899;DHT22;38763;53.096;6.062;2022-09-12T15:10:41;23.10;99.90
52899;DHT22;38763;53.096;6.062;2022-09-12T15:15:43;23.00;99.90
52899;DHT22;38763;53.096;6.062;2022-09-12T15:18:09;22.90;99.90
52899;DHT22;38763;53.096;6.062;2022-09-12T15:20:36;22.90;99.90
52899;DHT22;38763;53.096;6.062;2022-09-12T15:23:04;22.80;99.90
52899;DHT22;38763;53.096;6.062;2022-09-12T15:25:30;22.80;99.90
52899;DHT22;38763;53.096;6.062;2022-09-12T15:27:56;22.70;99.90
52899;DHT22;38763;53.096;6.062;2022-09-12T15:30:22;22.70;99.90
52899;DHT22;38763;53.096;6.062;2022-09-12T15:32:48;22.60;99.90
52899;DHT22;38763;53.096;6.062;2022-09-12T15:35:19;22.60;99.90
52899;DHT22;38763;53.096;6.062;2022-09-12T15:37:46;22.60;99.90
52899;DHT22;38763;53.096;6.062;2022-09-12T15:40:12;22.50;99.90
52899;DHT22;38763;53.096;6.062;2022-09-12T15:42:38;22.40;99.90
52899;DHT22;38763;53.096;6.062;2022-09-12T15:45:31;22.40;99.90
52899;DHT22;38763;53.096;6.062;2022-09-12T15:47:57;22.30;99.90
52899;DHT22;38763;53.096;6.062;2022-09-12T15:50:23;22.30;99.90
52899;DHT22;38763;53.096;6.062;2022-09-12T15:52:49;22.30;99.90
52899;DHT22;38763;53.096;6.062;2022-09-12T15:55:21;22.20;99.90
52899;DHT22;38763;53.096;6.062;2022-09-12T15:57:47;22.20;99.90
52899;DHT22;38763;53.096;6.062;2022-09-12T16:00:14;22.20;99.90
52899;DHT22;38763;53.096;6.062;2022-09-12T16:02:40;22.20;99.90
52899;DHT22;38763;53.096;6.062;2022-09-12T16:05:14;22.20;99.90
52899;DHT22;38763;53.096;6.062;2022-09-12T16:07:41;22.20;99.90
52899;DHT22;38763;53.096;6.062;2022-09-12T16:10:13;22.10;99.90
52899;DHT22;38763;53.096;6.062;2022-09-12T16:12:39;22.10;99.90
52899;DHT22;38763;53.096;6.062;2022-09-12T16:15:04;22.00;99.90
52899;DHT22;38763;53.096;6.062;2022-09-12T16:17:31;22.00;99.90
52899;DHT22;38763;53.096;6.062;2022-09-12T16:19:56;21.90;99.90
52899;DHT22;38763;53.096;6.062;2022-09-12T16:22:22;21.90;99.90
52899;DHT22;38763;53.096;6.062;2022-09-12T16:24:47;21.90;99.90
52899;DHT22;38763;53.096;6.062;2022-09-12T16:27:13;21.90;99.90
52899;DHT22;38763;53.096;6.062;2022-09-12T16:29:38;21.80;99.90
52899;DHT22;38763;53.096;6.062;2022-09-12T16:32:04;21.70;99.90
52899;DHT22;38763;53.096;6.062;2022-09-12T16:34:30;21.60;99.90
52899;DHT22;38763;53.096;6.062;2022-09-12T16:36:55;21.60;99.90
52899;DHT22;38763;53.096;6.062;2022-09-12T16:39:21;21.60;99.90
52899;DHT22;38763;53.096;6.062;2022-09-12T16:41:47;21.50;99.90
52899;DHT22;38763;53.096;6.062;2022-09-12T16:44:12;21.50;99.90
52899;DHT22;38763;53.096;6.062;2022-09-12T16:46:38;21.40;99.90
52899;DHT22;38763;53.096;6.062;2022-09-12T16:49:03;21.40;99.90
52899;DHT22;38763;53.096;6.062;2022-09-12T16:51:33;21.40;99.90
52899;DHT22;38763;53.096;6.062;2022-09-12T16:54:00;21.40;99.90
52899;DHT22;38763;53.096;6.062;2022-09-12T16:56:26;21.40;99.90
52899;DHT22;38763;53.096;6.062;2022-09-12T16:58:52;21.40;99.90
52899;DHT22;38763;53.096;6.062;2022-09-12T17:01:23;21.30;99.90
52899;DHT22;38763;53.096;6.062;2022-09-12T17:03:56;21.30;99.90
52899;DHT22;38763;53.096;6.062;2022-09-12T17:06:23;21.30;99.90
52899;DHT22;38763;53.096;6.062;2022-09-12T17:08:51;21.20;99.90
52899;DHT22;38763;53.096;6.062;2022-09-12T17:11:20;21.20;99.90
52899;DHT22;38763;53.096;6.062;2022-09-12T17:13:53;21.10;99.90
52899;DHT22;38763;53.096;6.062;2022-09-12T17:16:20;21.00;99.90
52899;DHT22;38763;53.096;6.062;2022-09-12T17:18:46;21.00;99.90
52899;DHT22;38763;53.096;6.062;2022-09-12T17:21:13;20.90;99.90
52899;DHT22;38763;53.096;6.062;2022-09-12T17:23:39;20.90;99.90
52899;DHT22;38763;53.096;6.062;2022-09-12T17:26:06;20.80;99.90
52899;DHT22;38763;53.096;6.062;2022-09-12T17:28:31;20.70;99.90
52899;DHT22;38763;53.096;6.062;2022-09-12T17:30:59;20.60;99.90
52899;DHT22;38763;53.096;6.062;2022-09-12T17:33:26;20.60;99.90
52899;DHT22;38763;53.096;6.062;2022-09-12T17:35:52;20.50;99.90
52899;DHT22;38763;53.096;6.062;2022-09-12T17:38:18;20.40;99.90
52899;DHT22;38763;53.096;6.062;2022-09-12T17:40:44;20.40;99.90
52899;DHT22;38763;53.096;6.062;2022-09-12T17:43:11;20.40;99.90
52899;DHT22;38763;53.096;6.062;2022-09-12T17:45:37;20.30;99.90
52899;DHT22;38763;53.096;6.062;2022-09-12T17:48:03;20.30;99.90
52899;DHT22;38763;53.096;6.062;2022-09-12T17:50:34;20.30;99.90
52899;DHT22;38763;53.096;6.062;2022-09-12T17:52:59;20.30;99.90
52899;DHT22;38763;53.096;6.062;2022-09-12T17:55:25;20.20;99.90
52899;DHT22;38763;53.096;6.062;2022-09-12T17:57:51;20.20;99.90
52899;DHT22;38763;53.096;6.062;2022-09-12T18:00:17;20.20;99.90
52899;DHT22;38763;53.096;6.062;2022-09-12T18:03:03;20.10;99.90
52899;DHT22;38763;53.096;6.062;2022-09-12T18:05:28;20.10;99.90
52899;DHT22;38763;53.096;6.062;2022-09-12T18:07:54;20.10;99.90
52899;DHT22;38763;53.096;6.062;2022-09-12T18:10:19;20.00;99.90
52899;DHT22;38763;53.096;6.062;2022-09-12T18:12:45;20.00;99.90
52899;DHT22;38763;53.096;6.062;2022-09-12T18:15:11;20.00;99.90
52899;DHT22;38763;53.096;6.062;2022-09-12T18:17:37;20.00;99.90
52899;DHT22;38763;53.096;6.062;2022-09-12T18:20:04;19.90;99.90
52899;DHT22;38763;53.096;6.062;2022-09-12T18:22:30;19.90;99.90
52899;DHT22;38763;53.096;6.062;2022-09-12T18:24:56;19.90;99.90
52899;DHT22;38763;53.096;6.062;2022-09-12T18:27:21;19.80;99.90
52899;DHT22;38763;53.096;6.062;2022-09-12T18:29:47;19.90;99.90
52899;DHT22;38763;53.096;6.062;2022-09-12T18:32:13;19.90;99.90
52899;DHT22;38763;53.096;6.062;2022-09-12T18:34:38;19.90;99.90
52899;DHT22;38763;53.096;6.062;2022-09-12T18:37:04;19.90;99.90
52899;DHT22;38763;53.096;6.062;2022-09-12T18:39:31;19.90;99.90